Time;durP1;ratioP1;P1;durP2;ratioP2;P2;SDS_P1;SDS_P2;PMS_P1;PMS_P2;Temp;Humidity;BMP_temperature;BMP_pressure;BME280_temperature;BME280_humidity;BME280_pressure;Samples;Min_cycle;Max_cycle;Signal;HPM_P1;HPM_P2
2022/03/16 00:01:59;;;;;;;20.73;10.43;;;7.80;99.90;;;;;;5198131;28;20429;-46
2022/03/16 00:04:29;;;;;;;20.60;10.80;;;7.70;99.90;;;;;;5201787;28;20187;-46
2022/03/16 00:07:00;;;;;;;19.40;10.10;;;7.70;99.90;;;;;;5202786;28;20204;-47
2022/03/16 00:09:30;;;;;;;21.73;10.53;;;7.80;99.90;;;;;;5198842;28;20203;-47
2022/03/16 00:12:01;;;;;;;22.20;10.80;;;7.80;99.90;;;;;;5202584;28;20654;-47
2022/03/16 00:14:31;;;;;;;30.77;14.97;;;7.80;99.90;;;;;;5199908;28;20216;-47
2022/03/16 00:17:03;;;;;;;17.63;11.10;;;7.70;99.90;;;;;;5201443;28;20286;-47
2022/03/16 00:19:34;;;;;;;18.80;10.70;;;7.70;99.90;;;;;;5199923;28;20308;-47
2022/03/16 00:22:05;;;;;;;19.13;12.03;;;7.70;99.90;;;;;;5197863;28;20873;-47
2022/03/16 00:24:36;;;;;;;21.90;11.70;;;7.70;99.90;;;;;;5197197;28;20516;-46
2022/03/16 00:27:06;;;;;;;21.27;13.27;;;7.60;99.90;;;;;;5198951;28;20225;-47
2022/03/16 00:29:37;;;;;;;22.17;12.67;;;7.60;99.90;;;;;;5199799;28;20219;-47
2022/03/16 00:32:07;;;;;;;25.00;13.10;;;7.60;99.90;;;;;;5202528;28;20179;-46
2022/03/16 00:34:38;;;;;;;21.40;12.07;;;7.60;99.90;;;;;;5195988;28;20611;-45
2022/03/16 00:37:08;;;;;;;23.67;12.97;;;7.60;99.90;;;;;;5200011;28;20634;-47
2022/03/16 00:39:39;;;;;;;37.63;14.80;;;7.50;99.90;;;;;;5203250;28;20192;-47
2022/03/16 00:42:09;;;;;;;22.93;14.67;;;7.40;99.90;;;;;;5201760;28;20219;-47
2022/03/16 00:44:40;;;;;;;24.27;12.53;;;7.40;99.90;;;;;;5198633;28;20532;-46
2022/03/16 00:47:10;;;;;;;26.13;12.90;;;7.40;99.90;;;;;;5199735;28;20215;-50
2022/03/16 00:49:41;;;;;;;21.97;13.37;;;7.40;99.90;;;;;;5280292;27;20519;-47
2022/03/16 00:52:11;;;;;;;27.00;12.30;;;7.30;99.90;;;;;;5197836;28;20192;-46
2022/03/16 00:54:42;;;;;;;24.93;14.03;;;7.30;99.90;;;;;;5199050;28;20203;-47
2022/03/16 00:57:13;;;;;;;21.53;13.50;;;7.30;99.90;;;;;;5201513;28;20541;-46
2022/03/16 00:59:43;;;;;;;24.17;14.00;;;7.20;99.90;;;;;;5197646;28;20192;-48
2022/03/16 01:02:14;;;;;;;25.00;14.40;;;7.20;99.90;;;;;;5198711;28;20187;-48
2022/03/16 01:04:44;;;;;;;22.53;12.87;;;7.10;99.90;;;;;;5200854;28;20630;-47
2022/03/16 01:07:15;;;;;;;29.73;15.10;;;7.00;99.90;;;;;;5198923;28;20210;-45
2022/03/16 01:09:45;;;;;;;24.97;14.20;;;7.00;99.90;;;;;;5195994;28;20225;-47
2022/03/16 01:12:16;;;;;;;27.60;14.00;;;6.90;99.90;;;;;;5198769;28;20196;-46
2022/03/16 01:14:47;;;;;;;24.70;14.10;;;6.90;99.90;;;;;;5202524;28;20231;-46
2022/03/16 01:17:17;;;;;;;25.20;15.83;;;6.80;99.90;;;;;;5202899;28;20210;-45
2022/03/16 01:19:48;;;;;;;30.70;14.57;;;6.70;99.90;;;;;;5200102;28;20219;-45
2022/03/16 01:22:18;;;;;;;27.20;14.03;;;6.70;99.90;;;;;;5197957;28;20187;-46
2022/03/16 01:24:49;;;;;;;29.97;15.67;;;6.60;99.90;;;;;;5197056;28;20188;-45
2022/03/16 01:27:19;;;;;;;23.50;13.60;;;6.60;99.90;;;;;;5198100;28;20218;-46
2022/03/16 01:29:50;;;;;;;39.37;15.80;;;6.50;99.90;;;;;;5182227;28;20214;-45
2022/03/16 01:32:20;;;;;;;33.90;16.90;;;6.50;99.90;;;;;;5196412;28;20236;-46
2022/03/16 01:34:51;;;;;;;37.17;17.30;;;6.40;99.90;;;;;;5202082;28;20552;-45
2022/03/16 01:37:21;;;;;;;30.43;15.30;;;6.40;99.90;;;;;;5216517;28;20202;-47
2022/03/16 01:39:52;;;;;;;35.53;15.30;;;6.40;99.90;;;;;;5196520;28;20243;-45
2022/03/16 01:42:22;;;;;;;25.03;14.80;;;6.40;99.90;;;;;;5202219;28;20390;-46
2022/03/16 01:44:57;;;;;;;24.60;14.40;;;6.30;99.90;;;;;;5202855;28;20191;-46
2022/03/16 01:47:27;;;;;;;31.13;15.37;;;6.30;99.90;;;;;;5198096;28;20591;-47
2022/03/16 01:49:58;;;;;;;33.63;15.17;;;6.20;99.90;;;;;;5203181;28;20626;-46
2022/03/16 01:52:29;;;;;;;28.37;14.80;;;6.20;99.90;;;;;;5202360;28;20175;-46
2022/03/16 01:55:04;;;;;;;28.03;14.73;;;6.10;99.90;;;;;;5203901;28;20188;-46
2022/03/16 01:57:36;;;;;;;31.27;14.43;;;6.10;99.90;;;;;;5202945;28;20433;-45
2022/03/16 02:00:07;;;;;;;26.30;14.33;;;6.10;99.90;;;;;;5204765;28;20922;-46
2022/03/16 02:02:38;;;;;;;27.47;14.00;;;6.00;99.90;;;;;;5203307;28;20434;-45
2022/03/16 02:05:09;;;;;;;29.47;14.90;;;6.00;99.90;;;;;;5197857;28;20611;-46
2022/03/16 02:07:43;;;;;;;28.93;14.93;;;5.90;99.90;;;;;;5194937;28;20182;-46
2022/03/16 02:10:15;;;;;;;21.13;13.03;;;5.90;99.90;;;;;;5202975;28;20244;-45
2022/03/16 02:12:50;;;;;;;24.03;14.10;;;5.90;99.90;;;;;;5204302;28;20443;-47
2022/03/16 02:15:21;;;;;;;26.67;13.87;;;5.90;99.90;;;;;;5204168;28;20452;-46
2022/03/16 02:17:55;;;;;;;22.57;13.70;;;5.80;99.90;;;;;;5204535;28;20563;-47
2022/03/16 02:20:27;;;;;;;25.13;13.37;;;5.80;99.90;;;;;;5206557;28;20443;-44
2022/03/16 02:23:03;;;;;;;27.33;13.30;;;5.70;99.90;;;;;;5206379;28;20438;-46
2022/03/16 02:25:48;;;;;;;21.40;12.13;;;5.70;99.90;;;;;;5206337;28;20457;-45
2022/03/16 02:28:19;;;;;;;26.53;13.17;;;5.60;99.90;;;;;;5204258;28;20497;-46
2022/03/16 02:30:51;;;;;;;20.10;12.83;;;5.60;99.90;;;;;;5201194;28;20479;-45
2022/03/16 02:33:22;;;;;;;29.40;14.77;;;5.60;99.90;;;;;;5202699;28;20444;-47
2022/03/16 02:35:52;;;;;;;29.27;13.77;;;5.60;99.90;;;;;;5204837;28;21003;-45
2022/03/16 02:38:23;;;;;;;22.37;14.30;;;5.60;99.90;;;;;;5202192;28;20184;-46
2022/03/16 02:40:54;;;;;;;19.97;12.67;;;5.60;99.90;;;;;;5201922;28;20181;-46
2022/03/16 02:43:24;;;;;;;23.00;13.17;;;5.50;99.90;;;;;;5201161;28;20193;-46
2022/03/16 02:45:56;;;;;;;30.53;15.03;;;5.50;99.90;;;;;;5201517;28;20462;-46
2022/03/16 02:48:27;;;;;;;38.30;15.40;;;5.50;99.90;;;;;;5201676;28;20233;-44
2022/03/16 02:50:57;;;;;;;25.20;13.73;;;5.60;99.90;;;;;;5195767;28;20488;-46
2022/03/16 02:53:28;;;;;;;27.60;13.97;;;5.50;99.90;;;;;;5202752;28;20208;-45
2022/03/16 02:55:59;;;;;;;31.13;12.90;;;5.40;99.90;;;;;;5180533;28;20289;-45
2022/03/16 02:58:29;;;;;;;27.37;13.90;;;5.40;99.90;;;;;;5201098;28;20196;-47
2022/03/16 03:01:00;;;;;;;29.30;14.03;;;5.40;99.90;;;;;;5202908;28;20200;-45
2022/03/16 03:03:30;;;;;;;26.00;13.70;;;5.30;99.90;;;;;;5197057;28;20183;-46
2022/03/16 03:06:01;;;;;;;23.93;12.77;;;5.30;99.90;;;;;;5202384;28;20195;-45
2022/03/16 03:08:31;;;;;;;27.20;13.30;;;5.30;99.90;;;;;;5198363;28;20189;-49
2022/03/16 03:11:02;;;;;;;18.87;12.30;;;5.20;99.90;;;;;;5201135;28;20218;-44
2022/03/16 03:13:34;;;;;;;20.33;12.70;;;5.20;99.90;;;;;;5199875;28;20192;-47
2022/03/16 03:16:05;;;;;;;30.63;12.77;;;5.20;99.90;;;;;;5197933;28;20217;-45
2022/03/16 03:18:37;;;;;;;22.60;13.07;;;5.20;99.90;;;;;;5197686;28;20444;-46
2022/03/16 03:21:08;;;;;;;25.27;14.10;;;5.10;99.90;;;;;;5200471;28;20181;-45
2022/03/16 03:23:38;;;;;;;24.77;13.53;;;5.10;99.90;;;;;;5197378;28;20493;-45
2022/03/16 03:26:09;;;;;;;22.27;14.00;;;5.10;99.90;;;;;;5201644;28;20538;-46
2022/03/16 03:28:39;;;;;;;28.13;14.20;;;5.10;99.90;;;;;;5198922;28;20198;-45
2022/03/16 03:31:10;;;;;;;34.57;13.83;;;5.00;99.90;;;;;;5198416;28;20298;-45
2022/03/16 03:33:40;;;;;;;30.60;15.10;;;5.10;99.90;;;;;;5200951;28;20189;-46
2022/03/16 03:36:11;;;;;;;23.00;15.07;;;5.10;99.90;;;;;;5201206;28;20194;-46
2022/03/16 03:38:41;;;;;;;21.93;13.93;;;5.00;99.90;;;;;;5198021;28;20184;-46
2022/03/16 03:41:12;;;;;;;22.60;14.20;;;5.00;99.90;;;;;;5198459;28;20540;-46
2022/03/16 03:43:42;;;;;;;27.60;15.97;;;5.00;99.90;;;;;;5204270;28;20227;-44
2022/03/16 03:46:13;;;;;;;32.07;14.80;;;5.00;99.90;;;;;;5198732;28;20232;-45
2022/03/16 03:48:43;;;;;;;21.63;14.20;;;4.90;99.90;;;;;;5198926;28;20199;-45
2022/03/16 03:51:14;;;;;;;37.83;15.83;;;4.90;99.90;;;;;;5199176;28;20208;-45
2022/03/16 03:53:44;;;;;;;28.83;15.27;;;4.90;99.90;;;;;;5198849;28;20176;-47
2022/03/16 03:56:15;;;;;;;26.80;13.53;;;4.90;99.90;;;;;;5201155;28;20209;-46
2022/03/16 03:58:46;;;;;;;24.93;14.07;;;4.80;99.90;;;;;;5200037;28;20173;-46
2022/03/16 04:01:16;;;;;;;26.27;14.93;;;4.80;99.90;;;;;;5201749;28;20201;-46
2022/03/16 04:03:47;;;;;;;30.33;13.87;;;4.80;99.90;;;;;;5198678;28;20245;-45
2022/03/16 04:06:17;;;;;;;25.90;14.33;;;4.80;99.90;;;;;;5199416;28;20213;-45
2022/03/16 04:08:48;;;;;;;27.23;14.87;;;4.70;99.90;;;;;;5198793;28;20704;-45
2022/03/16 04:11:18;;;;;;;31.77;14.90;;;4.70;99.90;;;;;;5200715;28;20217;-46
2022/03/16 04:13:48;;;;;;;35.00;14.67;;;4.70;99.90;;;;;;5198266;28;20629;-45
2022/03/16 04:16:20;;;;;;;27.83;13.43;;;4.70;99.90;;;;;;5197306;28;20215;-47
2022/03/16 04:18:51;;;;;;;20.97;12.87;;;4.70;99.90;;;;;;5199539;28;20275;-46
2022/03/16 04:21:21;;;;;;;26.17;15.03;;;4.60;99.90;;;;;;5203836;28;25094;-45
2022/03/16 04:23:52;;;;;;;35.07;18.07;;;4.60;99.90;;;;;;5204578;28;20189;-46
2022/03/16 04:26:23;;;;;;;37.17;15.83;;;4.60;99.90;;;;;;5201932;28;20226;-46
2022/03/16 04:28:53;;;;;;;31.13;16.43;;;4.60;99.90;;;;;;5203026;28;20240;-46
2022/03/16 04:31:24;;;;;;;32.23;16.10;;;4.50;99.90;;;;;;5198331;28;20294;-45
2022/03/16 04:33:55;;;;;;;35.87;17.73;;;4.50;99.90;;;;;;5198523;28;20242;-46
2022/03/16 04:36:28;;;;;;;31.27;16.87;;;4.50;99.90;;;;;;5196758;28;20208;-46
2022/03/16 04:38:59;;;;;;;31.30;17.20;;;4.50;99.90;;;;;;5198754;28;20948;-46
2022/03/16 04:41:29;;;;;;;37.53;18.30;;;4.50;99.90;;;;;;5197008;28;20454;-45
2022/03/16 04:44:00;;;;;;;36.47;17.63;;;4.40;99.90;;;;;;5200912;28;20202;-46
2022/03/16 04:46:30;;;;;;;37.50;16.10;;;4.40;99.90;;;;;;5200293;28;20538;-48
2022/03/16 04:49:01;;;;;;;31.33;16.90;;;4.30;99.90;;;;;;5197216;28;20180;-46
2022/03/16 04:51:31;;;;;;;28.70;16.77;;;4.30;99.90;;;;;;5201863;28;20220;-46
2022/03/16 04:54:02;;;;;;;37.40;17.47;;;4.20;99.90;;;;;;5196761;28;20186;-46
2022/03/16 04:56:34;;;;;;;39.33;17.57;;;4.30;99.90;;;;;;5197245;28;20251;-44
2022/03/16 04:59:04;;;;;;;32.63;17.30;;;4.20;99.90;;;;;;5201094;28;20193;-47
2022/03/16 05:01:35;;;;;;;32.67;17.40;;;4.20;99.90;;;;;;5199887;28;20453;-45
2022/03/16 05:04:06;;;;;;;37.87;18.00;;;4.30;99.90;;;;;;5196827;28;20344;-46
2022/03/16 05:06:36;;;;;;;29.23;16.33;;;4.20;99.90;;;;;;5200254;28;20466;-45
2022/03/16 05:09:07;;;;;;;35.23;17.03;;;4.10;99.90;;;;;;5204575;28;20233;-46
2022/03/16 05:11:40;;;;;;;45.90;19.10;;;4.10;99.90;;;;;;5202492;28;20531;-45
2022/03/16 05:14:11;;;;;;;29.90;18.50;;;4.10;99.90;;;;;;5203697;28;21223;-48
2022/03/16 05:16:41;;;;;;;41.87;20.13;;;4.10;99.90;;;;;;5202288;28;20496;-45
2022/03/16 05:19:12;;;;;;;36.83;18.67;;;4.00;99.90;;;;;;5199590;28;20204;-45
2022/03/16 05:21:43;;;;;;;36.10;19.87;;;4.00;99.90;;;;;;5198953;28;20232;-47
2022/03/16 05:24:14;;;;;;;47.90;20.77;;;4.10;99.90;;;;;;5205937;28;20180;-48
2022/03/16 05:26:44;;;;;;;36.33;19.30;;;4.00;99.90;;;;;;5203576;28;20583;-46
2022/03/16 05:29:14;;;;;;;31.53;19.60;;;4.00;99.90;;;;;;5200571;28;20180;-45
2022/03/16 05:31:45;;;;;;;34.07;19.03;;;4.20;99.90;;;;;;5195018;28;20246;-45
2022/03/16 05:34:16;;;;;;;39.37;19.90;;;4.20;99.90;;;;;;5199634;28;20184;-46
2022/03/16 05:36:46;;;;;;;33.80;17.30;;;4.20;99.90;;;;;;5204706;28;20218;-48
2022/03/16 05:39:16;;;;;;;39.30;20.63;;;4.20;99.90;;;;;;5203962;28;20188;-48
2022/03/16 05:41:47;;;;;;;32.60;17.30;;;4.30;99.90;;;;;;5198694;28;20686;-46
2022/03/16 05:44:17;;;;;;;35.73;18.53;;;4.40;99.90;;;;;;5202600;28;20223;-45
2022/03/16 05:46:48;;;;;;;30.10;15.40;;;4.50;99.90;;;;;;5197342;28;20736;-47
2022/03/16 05:49:19;;;;;;;32.93;19.07;;;4.50;99.90;;;;;;5194218;28;20183;-49
2022/03/16 05:51:49;;;;;;;35.63;18.53;;;4.60;99.90;;;;;;5184589;28;20184;-46
2022/03/16 05:54:20;;;;;;;39.20;17.80;;;4.90;99.90;;;;;;5196044;28;20194;-46
2022/03/16 05:56:50;;;;;;;34.07;16.47;;;5.50;99.90;;;;;;5201114;28;20225;-47
2022/03/16 05:59:21;;;;;;;38.20;17.90;;;5.90;99.90;;;;;;5199117;28;20276;-47
2022/03/16 06:01:52;;;;;;;37.70;17.33;;;6.10;99.90;;;;;;5189495;28;20208;-46
2022/03/16 06:04:23;;;;;;;30.93;16.67;;;6.30;99.90;;;;;;5192650;28;20674;-48
2022/03/16 06:06:53;;;;;;;38.63;17.53;;;6.40;99.90;;;;;;5197201;28;20503;-47
2022/03/16 06:09:24;;;;;;;32.17;17.23;;;6.20;99.90;;;;;;5201063;28;20196;-46
2022/03/16 06:11:54;;;;;;;32.53;17.83;;;6.00;99.90;;;;;;5199939;28;20180;-46
2022/03/16 06:14:25;;;;;;;35.77;20.00;;;5.90;99.90;;;;;;5196749;28;20192;-46
2022/03/16 06:16:56;;;;;;;41.20;18.93;;;5.80;99.90;;;;;;5196096;27;20670;-47
2022/03/16 06:19:26;;;;;;;40.93;19.90;;;5.80;99.90;;;;;;5195924;28;20197;-48
2022/03/16 06:21:57;;;;;;;37.43;18.53;;;5.90;99.90;;;;;;5197884;28;20462;-47
2022/03/16 06:24:28;;;;;;;38.53;19.10;;;6.20;99.90;;;;;;5197192;28;20260;-46
2022/03/16 06:26:58;;;;;;;33.67;18.60;;;6.70;99.90;;;;;;5201159;28;20200;-46
2022/03/16 06:29:29;;;;;;;42.33;19.50;;;7.60;99.90;;;;;;5199955;28;20213;-45
2022/03/16 06:31:59;;;;;;;39.77;17.90;;;8.50;99.90;;;;;;5204108;28;20243;-46
2022/03/16 06:34:30;;;;;;;36.63;17.30;;;9.30;99.90;;;;;;5187958;28;20592;-47
2022/03/16 06:37:00;;;;;;;30.87;17.20;;;10.30;99.90;;;;;;5203788;28;20611;-46
2022/03/16 06:39:31;;;;;;;30.23;16.87;;;10.90;99.90;;;;;;5200968;28;20257;-46
2022/03/16 06:42:01;;;;;;;35.23;17.10;;;11.20;99.90;;;;;;5207312;28;20180;-45
2022/03/16 06:44:32;;;;;;;35.97;18.53;;;11.40;99.90;;;;;;5195221;28;20192;-45
2022/03/16 06:47:03;;;;;;;36.07;18.73;;;11.60;99.90;;;;;;5194158;28;20211;-47
2022/03/16 06:49:33;;;;;;;32.60;16.33;;;11.80;99.10;;;;;;5198635;28;20207;-46
2022/03/16 06:52:04;;;;;;;31.70;17.00;;;12.10;97.00;;;;;;5199476;28;20203;-45
2022/03/16 06:54:34;;;;;;;28.87;16.63;;;12.70;93.30;;;;;;5197791;28;20294;-45
2022/03/16 06:57:05;;;;;;;28.87;17.20;;;12.90;89.20;;;;;;5180901;28;20458;-45
2022/03/16 06:59:39;;;;;;;34.03;17.13;;;12.90;83.80;;;;;;5194627;28;20179;-44
2022/03/16 07:02:09;;;;;;;33.60;16.77;;;12.70;85.40;;;;;;5193555;28;20180;-47
2022/03/16 07:04:40;;;;;;;31.13;17.10;;;12.20;87.20;;;;;;5202295;28;20442;-47
2022/03/16 07:07:10;;;;;;;35.63;17.80;;;12.00;92.40;;;;;;5203152;28;20336;-46
2022/03/16 07:09:41;;;;;;;31.23;17.70;;;12.40;92.00;;;;;;5192026;28;20254;-46
2022/03/16 07:12:11;;;;;;;28.73;15.93;;;13.00;85.40;;;;;;5196159;28;20180;-46
2022/03/16 07:14:42;;;;;;;36.90;18.47;;;13.50;78.80;;;;;;5196775;28;20219;-46
2022/03/16 07:17:12;;;;;;;28.40;16.10;;;13.50;74.60;;;;;;5196938;28;20294;-47
2022/03/16 07:19:43;;;;;;;32.97;16.10;;;13.30;73.10;;;;;;5195213;28;20185;-46
2022/03/16 07:22:13;;;;;;;26.63;15.80;;;13.30;74.50;;;;;;5193084;28;20181;-45
2022/03/16 07:24:44;;;;;;;37.10;16.07;;;13.40;71.60;;;;;;5195864;28;20211;-46
2022/03/16 07:27:14;;;;;;;29.60;15.90;;;12.10;75.60;;;;;;5197575;28;20528;-48
2022/03/16 07:29:45;;;;;;;34.70;17.43;;;10.30;95.40;;;;;;5197209;28;20685;-46
2022/03/16 07:32:15;;;;;;;34.43;18.50;;;8.60;99.90;;;;;;5192551;28;20191;-48
2022/03/16 07:34:46;;;;;;;36.43;17.83;;;7.40;99.90;;;;;;5199527;28;20199;-48
2022/03/16 07:37:17;;;;;;;33.20;17.93;;;6.70;99.90;;;;;;5195348;28;20223;-46
2022/03/16 07:39:48;;;;;;;36.03;17.53;;;6.20;99.90;;;;;;5194826;28;20919;-46
2022/03/16 07:42:18;;;;;;;31.83;18.10;;;6.00;99.90;;;;;;5201346;28;20462;-48
2022/03/16 07:44:50;;;;;;;29.27;16.60;;;5.90;99.90;;;;;;5193010;28;20568;-46
2022/03/16 07:47:21;;;;;;;34.13;19.03;;;5.50;99.90;;;;;;5192163;28;20250;-46
2022/03/16 07:49:52;;;;;;;50.33;19.60;;;5.10;99.90;;;;;;5193892;28;20454;-48
2022/03/16 07:52:24;;;;;;;57.00;21.40;;;4.90;99.90;;;;;;5198032;28;20175;-48
2022/03/16 07:54:55;;;;;;;67.50;24.53;;;4.90;99.90;;;;;;5191484;28;20533;-47
2022/03/16 07:57:25;;;;;;;67.57;28.43;;;4.70;99.90;;;;;;5193241;28;20868;-44
2022/03/16 07:59:56;;;;;;;81.43;28.63;;;4.50;99.90;;;;;;5202654;28;20188;-46
2022/03/16 08:02:27;;;;;;;82.57;28.53;;;4.60;99.90;;;;;;5196636;28;20221;-46
2022/03/16 08:05:00;;;;;;;84.60;29.60;;;4.60;99.90;;;;;;5191822;28;20184;-45
2022/03/16 08:07:30;;;;;;;54.33;28.33;;;4.50;99.90;;;;;;5195716;28;20438;-47
2022/03/16 08:10:01;;;;;;;57.27;27.23;;;4.40;99.90;;;;;;5200793;28;20462;-47
2022/03/16 08:12:32;;;;;;;52.50;23.20;;;4.40;99.90;;;;;;5202054;28;20201;-46
2022/03/16 08:15:04;;;;;;;51.93;23.00;;;4.40;99.90;;;;;;5201417;28;20819;-46
2022/03/16 08:17:35;;;;;;;52.27;22.33;;;4.40;99.90;;;;;;5198229;28;20188;-45
2022/03/16 08:20:06;;;;;;;36.13;17.80;;;4.50;99.90;;;;;;5191000;28;20476;-47
2022/03/16 08:22:37;;;;;;;35.37;19.80;;;4.60;99.90;;;;;;5197179;28;20188;-46
2022/03/16 08:25:10;;;;;;;37.00;19.40;;;4.70;99.90;;;;;;5200306;28;20446;-44
2022/03/16 08:27:40;;;;;;;35.93;19.17;;;4.80;99.90;;;;;;5197180;28;20195;-45
2022/03/16 08:30:12;;;;;;;34.67;19.10;;;4.90;99.90;;;;;;5204190;28;20477;-45
2022/03/16 08:32:42;;;;;;;38.93;18.90;;;5.00;99.90;;;;;;5202289;28;20188;-46
2022/03/16 08:35:13;;;;;;;30.57;17.73;;;5.10;99.90;;;;;;5196394;28;20454;-46
2022/03/16 08:37:43;;;;;;;43.23;18.03;;;5.30;99.90;;;;;;5194730;28;20192;-46
2022/03/16 08:40:16;;;;;;;27.40;17.30;;;5.40;99.90;;;;;;5188940;28;20563;-47
2022/03/16 08:42:48;;;;;;;33.47;16.10;;;5.50;99.90;;;;;;5193381;28;20195;-46
2022/03/16 08:45:19;;;;;;;31.03;17.53;;;5.50;99.90;;;;;;5190424;28;20478;-47
2022/03/16 08:47:50;;;;;;;28.00;17.33;;;5.40;99.90;;;;;;5174884;28;20445;-46
2022/03/16 08:50:21;;;;;;;35.90;17.10;;;5.40;99.90;;;;;;5192296;28;20211;-47
2022/03/16 08:52:51;;;;;;;31.00;18.10;;;5.40;99.90;;;;;;5194934;28;20188;-45
2022/03/16 08:55:22;;;;;;;28.37;16.60;;;5.40;99.90;;;;;;5190511;28;20291;-46
2022/03/16 08:57:53;;;;;;;28.07;16.00;;;5.50;99.90;;;;;;5196715;28;20263;-46
2022/03/16 09:00:24;;;;;;;26.83;16.53;;;5.50;99.90;;;;;;5193055;28;20584;-46
2022/03/16 09:02:54;;;;;;;24.03;14.87;;;5.50;99.90;;;;;;5195688;28;20199;-46
2022/03/16 09:05:25;;;;;;;27.00;16.47;;;5.50;99.90;;;;;;5181509;28;20199;-47
2022/03/16 09:07:56;;;;;;;29.37;15.57;;;5.80;99.90;;;;;;5198656;28;20203;-47
2022/03/16 09:10:26;;;;;;;27.50;15.00;;;5.80;99.90;;;;;;5193597;28;20214;-47
2022/03/16 09:12:57;;;;;;;27.27;16.03;;;5.70;99.90;;;;;;5196818;28;20189;-45
2022/03/16 09:15:27;;;;;;;26.47;16.23;;;5.80;99.90;;;;;;5199468;28;20196;-48
2022/03/16 09:17:58;;;;;;;24.53;14.77;;;5.70;99.90;;;;;;5195024;28;20252;-47
2022/03/16 09:20:29;;;;;;;30.33;15.80;;;5.70;99.90;;;;;;5193483;28;20245;-46
2022/03/16 09:23:00;;;;;;;29.43;14.67;;;5.70;99.90;;;;;;5191713;28;20197;-47
2022/03/16 09:25:30;;;;;;;27.83;16.10;;;5.80;99.90;;;;;;5198163;28;20580;-46
2022/03/16 09:28:01;;;;;;;28.67;17.10;;;5.80;99.90;;;;;;5192562;28;20275;-47
2022/03/16 09:30:31;;;;;;;35.83;15.70;;;5.90;99.90;;;;;;5199196;28;20949;-46
2022/03/16 09:33:03;;;;;;;25.73;15.73;;;5.90;99.90;;;;;;5195618;28;20180;-48
2022/03/16 09:35:35;;;;;;;29.87;16.17;;;6.00;99.90;;;;;;5195017;28;20248;-47
2022/03/16 09:38:05;;;;;;;24.00;15.47;;;6.10;99.90;;;;;;5187140;28;20551;-47
2022/03/16 09:40:36;;;;;;;26.63;14.57;;;6.30;99.90;;;;;;5191854;28;20472;-46
2022/03/16 09:43:08;;;;;;;22.37;13.90;;;6.40;99.90;;;;;;5198325;28;20665;-46
2022/03/16 09:45:54;;;;;;;23.33;14.33;;;6.50;99.90;;;;;;5194963;28;20974;-47
2022/03/16 09:48:25;;;;;;;24.47;13.27;;;6.50;99.90;;;;;;5190076;28;20484;-47
2022/03/16 09:50:56;;;;;;;26.73;14.90;;;6.50;99.90;;;;;;5191043;28;20464;-47
2022/03/16 09:53:26;;;;;;;25.17;14.20;;;6.40;99.90;;;;;;5197972;28;22023;-46
2022/03/16 09:55:57;;;;;;;20.00;12.87;;;6.30;99.90;;;;;;5198847;28;20456;-49
2022/03/16 09:58:28;;;;;;;32.03;15.93;;;6.40;99.90;;;;;;5201271;28;20187;-48
2022/03/16 10:00:59;;;;;;;19.67;13.53;;;6.60;99.90;;;;;;5200645;28;20498;-46
2022/03/16 10:03:29;;;;;;;28.33;14.73;;;6.60;99.90;;;;;;5198684;28;20201;-48
2022/03/16 10:06:00;;;;;;;18.70;13.17;;;6.60;99.90;;;;;;5196654;28;20222;-47
2022/03/16 10:08:32;;;;;;;27.07;14.90;;;6.70;99.90;;;;;;5196119;28;20214;-47
2022/03/16 10:14:06;;;;;;;21.60;14.60;;;7.00;99.90;;;;;;5195462;28;20801;-47
2022/03/16 10:19:25;;;;;;;24.30;12.37;;;7.20;99.90;;;;;;5195543;28;20462;-48
2022/03/16 10:22:00;;;;;;;23.63;13.00;;;7.30;99.90;;;;;;5196179;28;20435;-47
2022/03/16 10:24:31;;;;;;;19.57;11.87;;;7.40;99.90;;;;;;5205572;28;20546;-47
2022/03/16 10:27:02;;;;;;;17.57;11.50;;;7.60;99.90;;;;;;5195709;28;20464;-47
2022/03/16 10:29:32;;;;;;;17.47;11.90;;;7.60;99.90;;;;;;5194189;28;20176;-46
2022/03/16 10:32:04;;;;;;;21.13;10.90;;;7.60;99.90;;;;;;5201740;28;20213;-47
2022/03/16 10:34:47;;;;;;;19.63;12.20;;;7.80;99.90;;;;;;5196686;28;20175;-47
2022/03/16 10:37:20;;;;;;;18.70;10.97;;;7.80;99.90;;;;;;5192039;28;20506;-47
2022/03/16 10:39:52;;;;;;;17.13;11.67;;;8.00;99.90;;;;;;5197183;28;20452;-46
2022/03/16 10:48:22;;;;;;;21.97;11.67;;;8.40;99.90;;;;;;5193428;28;20441;-48
2022/03/16 10:51:02;;;;;;;22.70;12.70;;;8.10;99.90;;;;;;5195842;28;20472;-47
2022/03/16 10:53:33;;;;;;;21.67;12.80;;;7.70;99.90;;;;;;5198203;28;20493;-48
2022/03/16 10:56:04;;;;;;;21.50;12.10;;;7.70;99.90;;;;;;5181369;28;20489;-48
2022/03/16 10:58:35;;;;;;;17.43;11.70;;;7.60;99.90;;;;;;5192311;28;20187;-48
2022/03/16 11:01:06;;;;;;;16.43;11.07;;;7.70;99.90;;;;;;5198011;28;20450;-46
2022/03/16 11:03:38;;;;;;;22.27;10.43;;;8.10;99.90;;;;;;5198239;28;20450;-47
2022/03/16 11:06:08;;;;;;;16.73;10.73;;;8.20;99.90;;;;;;5190632;28;20258;-47
2022/03/16 11:08:41;;;;;;;32.27;13.00;;;8.00;99.90;;;;;;5195695;28;20595;-47
2022/03/16 11:14:03;;;;;;;21.80;12.00;;;7.90;99.90;;;;;;5195694;28;20433;-48
2022/03/16 11:16:34;;;;;;;21.47;12.40;;;7.90;99.90;;;;;;5197738;28;20473;-49
2022/03/16 11:19:06;;;;;;;20.03;11.60;;;7.90;99.90;;;;;;5193871;28;20831;-48
2022/03/16 11:22:01;;;;;;;17.60;10.70;;;8.10;99.90;;;;;;5196210;28;20648;-48
2022/03/16 11:24:36;;;;;;;20.73;10.63;;;8.50;99.90;;;;;;5195665;28;20474;-47
2022/03/16 11:27:34;;;;;;;15.43;9.77;;;8.60;99.90;;;;;;5179726;28;20458;-46
2022/03/16 11:30:08;;;;;;;17.33;10.17;;;8.30;99.90;;;;;;5194055;28;20459;-47
2022/03/16 11:32:44;;;;;;;21.33;10.80;;;8.10;99.90;;;;;;5201555;28;20432;-45
2022/03/16 11:35:17;;;;;;;19.27;11.07;;;8.10;99.90;;;;;;5193109;27;20545;-47
2022/03/16 11:37:50;;;;;;;23.63;11.60;;;8.10;99.90;;;;;;5195122;28;20804;-46
2022/03/16 11:40:23;;;;;;;16.83;11.13;;;8.30;99.90;;;;;;5194264;28;20437;-47
2022/03/16 11:43:08;;;;;;;19.93;10.80;;;8.40;99.90;;;;;;5196749;28;20450;-47
2022/03/16 11:45:41;;;;;;;22.17;10.97;;;8.50;99.90;;;;;;5192582;28;20454;-47
2022/03/16 11:48:27;;;;;;;16.97;11.87;;;8.40;99.90;;;;;;5191077;28;20910;-48
2022/03/16 11:51:18;;;;;;;24.80;12.20;;;8.40;99.90;;;;;;5194380;28;20553;-47
2022/03/16 11:56:36;;;;;;;18.73;12.30;;;8.40;99.90;;;;;;5195743;28;20482;-47
2022/03/16 11:59:16;;;;;;;19.43;12.10;;;8.30;99.90;;;;;;5263107;28;20204;-47
2022/03/16 12:01:52;;;;;;;21.60;13.57;;;8.30;99.90;;;;;;5197225;28;20845;-47
2022/03/16 12:04:35;;;;;;;21.20;12.07;;;8.30;99.90;;;;;;5191561;28;21001;-45
2022/03/16 12:07:17;;;;;;;24.17;13.23;;;8.30;99.90;;;;;;5201777;28;20473;-48
2022/03/16 12:10:01;;;;;;;19.63;12.43;;;8.20;99.90;;;;;;5192447;28;20542;-47
2022/03/16 12:15:28;;;;;;;23.13;13.50;;;8.20;99.90;;;;;;5191198;28;20505;-48
2022/03/16 12:18:01;;;;;;;41.20;14.50;;;8.30;99.90;;;;;;5192776;28;20451;-47
2022/03/16 12:20:37;;;;;;;24.27;14.10;;;8.50;99.90;;;;;;5196567;28;21017;-47
2022/03/16 12:23:10;;;;;;;31.43;15.03;;;8.70;99.90;;;;;;5190053;28;20445;-49
2022/03/16 12:25:46;;;;;;;32.87;16.83;;;8.80;99.90;;;;;;5188631;28;20548;-47
2022/03/16 12:31:15;;;;;;;28.33;15.40;;;8.70;99.90;;;;;;5194454;28;20541;-47
2022/03/16 12:33:52;;;;;;;30.80;16.03;;;8.70;99.90;;;;;;5189638;28;20572;-50
2022/03/16 12:36:31;;;;;;;32.10;17.47;;;8.80;99.90;;;;;;5198234;28;20464;-48
2022/03/16 12:39:12;;;;;;;37.47;18.40;;;8.80;99.90;;;;;;5192121;28;20453;-49
2022/03/16 12:44:45;;;;;;;41.13;20.20;;;8.70;99.90;;;;;;5191231;28;20802;-47
2022/03/16 12:47:28;;;;;;;43.87;19.40;;;8.60;99.90;;;;;;5189835;28;20938;-47
2022/03/16 12:50:02;;;;;;;45.43;20.50;;;8.70;99.90;;;;;;5194903;28;20511;-48
2022/03/16 12:52:32;;;;;;;63.17;23.27;;;8.80;99.90;;;;;;5192069;28;20801;-49
2022/03/16 12:55:15;;;;;;;51.63;21.67;;;8.70;99.90;;;;;;5194956;28;20438;-50
2022/03/16 12:57:56;;;;;;;48.40;20.47;;;8.60;99.90;;;;;;5196548;28;20723;-47
2022/03/16 13:00:38;;;;;;;46.30;21.50;;;8.60;99.90;;;;;;5194153;28;20439;-48
2022/03/16 13:03:17;;;;;;;52.03;23.67;;;8.70;99.90;;;;;;5192860;28;20470;-49
2022/03/16 13:05:49;;;;;;;53.13;22.57;;;8.80;99.90;;;;;;5191219;28;21032;-47
2022/03/16 13:08:19;;;;;;;48.60;22.73;;;8.90;99.90;;;;;;5195738;28;20487;-48
2022/03/16 13:11:16;;;;;;;55.60;22.30;;;9.00;99.90;;;;;;5197233;28;20467;-48
2022/03/16 13:13:46;;;;;;;45.50;22.93;;;9.10;99.90;;;;;;5195050;28;20217;-47
2022/03/16 13:16:38;;;;;;;45.73;22.23;;;9.20;99.90;;;;;;5191619;28;20458;-48
2022/03/16 13:19:26;;;;;;;56.67;23.97;;;9.10;99.90;;;;;;5193036;28;20240;-47
2022/03/16 13:22:09;;;;;;;46.90;24.23;;;9.20;99.90;;;;;;5194423;28;20498;-47
2022/03/16 13:24:40;;;;;;;46.33;23.27;;;9.20;99.90;;;;;;5195124;28;20776;-47
2022/03/16 13:27:13;;;;;;;44.03;22.63;;;9.20;99.90;;;;;;5193081;28;21255;-48